createdAt,value
2023-01-04T00:03:58.818Z,5.20
2023-01-04T00:08:03.355Z,5.18
2023-01-04T00:12:06.886Z,5.11
2023-01-04T00:16:13.476Z,5.06
2023-01-04T00:20:17.702Z,5.02
2023-01-04T00:24:22.352Z,4.99
2023-01-04T00:28:25.433Z,4.97
2023-01-04T00:32:28.460Z,4.95
2023-01-04T00:36:32.336Z,4.89
2023-01-04T00:40:37.045Z,4.83
2023-01-04T00:44:40.160Z,4.75
2023-01-04T00:48:47.694Z,4.70
2023-01-04T00:52:51.989Z,4.66
2023-01-04T00:56:56.474Z,4.64
2023-01-04T01:01:06.148Z,4.63
2023-01-04T01:05:09.604Z,4.62
2023-01-04T01:09:13.166Z,4.61
2023-01-04T01:13:17.665Z,4.60
2023-01-04T01:17:21.103Z,4.59
2023-01-04T01:21:27.172Z,4.51
2023-01-04T01:25:30.389Z,4.43
2023-01-04T01:29:34.984Z,4.35
2023-01-04T01:33:38.140Z,4.26
2023-01-04T01:37:41.316Z,4.19
2023-01-04T01:41:44.349Z,4.12
2023-01-04T01:45:53.256Z,4.06
2023-01-04T01:49:56.658Z,3.97
2023-01-04T01:54:05.656Z,3.86
2023-01-04T01:58:12.385Z,3.82
2023-01-04T02:02:16.892Z,3.77
2023-01-04T02:06:26.569Z,3.71
2023-01-04T02:10:29.762Z,3.65
2023-01-04T02:14:32.809Z,3.57
2023-01-04T02:18:45.277Z,3.51
2023-01-04T02:23:27.507Z,3.47
2023-01-04T02:27:45.621Z,3.45
2023-01-04T02:31:55.243Z,3.41
2023-01-04T02:36:08.294Z,3.36
2023-01-04T02:40:19.935Z,3.33
2023-01-04T02:44:47.376Z,3.29
2023-01-04T02:49:09.432Z,3.23
2023-01-04T02:53:16.240Z,3.12
2023-01-04T02:57:33.133Z,3.04
2023-01-04T03:02:03.570Z,3.00
2023-01-04T03:06:17.002Z,2.95
2023-01-04T03:10:26.710Z,2.86
2023-01-04T03:14:36.753Z,2.78
2023-01-04T03:18:45.648Z,2.72
2023-01-04T03:23:12.015Z,2.65
2023-01-04T03:27:32.276Z,2.57
2023-01-04T03:31:56.756Z,2.55
2023-01-04T03:36:11.669Z,2.50
2023-01-04T03:40:41.876Z,2.45
2023-01-04T03:45:11.661Z,2.41
2023-01-04T03:53:54.735Z,2.30
2023-01-04T03:58:00.383Z,2.24
2023-01-04T04:02:04.195Z,2.25
2023-01-04T04:06:27.820Z,2.26
2023-01-04T04:10:30.879Z,2.25
2023-01-04T04:14:35.525Z,2.23
2023-01-04T04:18:38.580Z,2.17
2023-01-04T04:22:42.314Z,2.13
2023-01-04T04:26:45.735Z,2.03
2023-01-04T04:30:52.522Z,2.01
2023-01-04T04:34:55.697Z,1.99
2023-01-04T04:38:58.795Z,1.99
2023-01-04T04:43:01.886Z,1.99
2023-01-04T04:47:06.336Z,1.97
2023-01-04T04:51:09.382Z,1.95
2023-01-04T04:55:12.681Z,1.85
2023-01-04T04:59:16.821Z,1.81
2023-01-04T05:03:21.329Z,1.81
2023-01-04T05:07:24.406Z,1.79
2023-01-04T05:11:41.526Z,1.73
2023-01-04T05:15:46.037Z,1.67
2023-01-04T05:19:50.467Z,1.64
2023-01-04T05:23:53.548Z,1.61
2023-01-04T05:27:57.735Z,1.57
2023-01-04T05:32:00.823Z,1.55
2023-01-04T05:36:05.790Z,1.50
2023-01-04T05:40:09.595Z,1.47
2023-01-04T05:44:12.603Z,1.41
2023-01-04T05:48:15.671Z,1.36
2023-01-04T05:52:20.564Z,1.32
2023-01-04T05:56:23.604Z,1.26
2023-01-04T06:00:26.897Z,1.25
2023-01-04T06:04:30.247Z,1.22
2023-01-04T06:08:35.052Z,1.17
2023-01-04T06:12:38.538Z,1.07
2023-01-04T06:16:41.676Z,1.03
2023-01-04T06:20:44.848Z,1.01
2023-01-04T06:24:49.342Z,1.00
2023-01-04T06:28:52.395Z,0.92
2023-01-04T06:32:55.788Z,0.85
2023-01-04T06:36:58.959Z,0.81
2023-01-04T06:41:03.699Z,1.01
2023-01-04T06:45:07.807Z,1.09
2023-01-04T06:49:11.097Z,1.05
2023-01-04T06:53:14.230Z,0.99
2023-01-04T06:57:18.643Z,0.98
2023-01-04T07:01:21.857Z,0.95
2023-01-04T07:05:24.982Z,0.92
2023-01-04T07:09:28.014Z,0.88
2023-01-04T07:13:32.481Z,0.83
2023-01-04T07:17:35.855Z,0.79
2023-01-04T07:21:38.926Z,0.72
2023-01-04T07:25:42.011Z,0.68
2023-01-04T07:29:46.983Z,0.64
2023-01-04T07:33:51.808Z,0.64
2023-01-04T07:37:58.593Z,0.67
2023-01-04T07:42:02.094Z,0.69
2023-01-04T07:46:07.788Z,0.74
2023-01-04T07:50:11.272Z,0.79
2023-01-04T07:54:14.878Z,0.82
2023-01-04T07:58:17.889Z,0.83
2023-01-04T08:02:22.466Z,0.85
2023-01-04T08:06:25.728Z,0.83
2023-01-04T08:10:28.772Z,0.76
2023-01-04T08:14:31.804Z,0.76
2023-01-04T08:18:36.294Z,0.70
2023-01-04T08:22:39.307Z,0.69
2023-01-04T08:26:42.447Z,0.74
2023-01-04T08:30:45.842Z,0.76
2023-01-04T08:34:50.259Z,0.80
2023-01-04T08:39:00.893Z,0.88
2023-01-04T08:43:04.799Z,0.94
2023-01-04T08:47:07.899Z,0.99
2023-01-04T08:51:15.062Z,0.93
2023-01-04T08:55:23.153Z,0.87
2023-01-04T08:59:26.623Z,0.91
2023-01-04T09:03:29.705Z,0.98
2023-01-04T09:07:34.379Z,1.06
2023-01-04T09:11:39.741Z,1.08
2023-01-04T09:15:43.021Z,1.12
2023-01-04T09:19:46.055Z,1.17
2023-01-04T09:23:50.676Z,1.20
2023-01-04T09:27:53.806Z,1.20
2023-01-04T09:31:57.100Z,1.18
2023-01-04T09:36:02.634Z,1.06
2023-01-04T09:40:08.752Z,0.99
2023-01-04T09:44:19.977Z,1.03
2023-01-04T09:48:28.196Z,1.13
2023-01-04T09:52:45.101Z,1.27
2023-01-04T09:56:53.982Z,1.37
2023-01-04T10:01:03.030Z,1.48
2023-01-04T10:05:08.136Z,1.50
2023-01-04T10:09:15.181Z,1.58
2023-01-04T10:13:32.649Z,1.67
2023-01-04T10:22:19.446Z,1.84
2023-01-04T10:26:26.709Z,1.92
2023-01-04T10:30:40.256Z,2.01
2023-01-04T10:34:44.934Z,2.01
2023-01-04T10:38:51.725Z,2.02
2023-01-04T10:43:01.241Z,2.01
2023-01-04T10:47:12.488Z,2.02
2023-01-04T10:51:19.435Z,1.99
2023-01-04T10:55:28.659Z,2.05
2023-01-04T10:59:39.810Z,2.11
2023-01-04T11:03:51.867Z,2.17
2023-01-04T11:08:00.532Z,2.15
2023-01-04T11:12:04.072Z,2.17
2023-01-04T11:16:08.791Z,2.18
2023-01-04T11:20:13.798Z,2.19
2023-01-04T11:24:34.393Z,2.25
2023-01-04T11:28:42.055Z,2.38
2023-01-04T11:32:50.742Z,2.40
2023-01-04T11:36:55.245Z,2.45
2023-01-04T11:41:00.873Z,2.46
2023-01-04T11:45:04.373Z,2.61
2023-01-04T11:49:20.534Z,2.61
2023-01-04T11:53:27.841Z,2.66
2023-01-04T11:57:30.873Z,2.69
2023-01-04T12:01:36.565Z,2.77
2023-01-04T12:05:39.693Z,2.87
2023-01-04T12:09:44.117Z,2.96
2023-01-04T12:13:47.356Z,3.04
2023-01-04T12:17:56.606Z,3.12
2023-01-04T12:22:02.247Z,3.22
2023-01-04T12:26:08.760Z,3.32
2023-01-04T12:30:36.198Z,3.40
2023-01-04T12:34:44.048Z,3.55
2023-01-04T12:39:05.771Z,3.65
2023-01-04T12:43:27.822Z,3.72
2023-01-04T12:47:59.090Z,3.76
2023-01-04T12:52:54.731Z,3.84
2023-01-04T12:57:36.867Z,3.95
2023-01-04T13:02:19.106Z,3.99
2023-01-04T13:06:24.886Z,4.05
2023-01-04T13:10:34.183Z,4.09
2023-01-04T13:14:43.425Z,4.17
2023-01-04T13:18:50.525Z,4.23
2023-01-04T13:22:55.938Z,4.30
2023-01-04T13:27:07.008Z,4.37
2023-01-04T13:31:10.200Z,4.44
2023-01-04T13:35:15.918Z,4.50
2023-01-04T13:39:20.442Z,4.56
2023-01-04T13:43:46.306Z,4.58
2023-01-04T13:47:52.918Z,4.63
2023-01-04T13:52:06.488Z,4.65
2023-01-04T13:56:22.581Z,4.67
2023-01-04T14:00:27.985Z,4.76
2023-01-04T14:04:33.811Z,4.79
2023-01-04T14:08:42.801Z,4.76
2023-01-04T14:12:47.657Z,4.78
2023-01-04T14:16:52.088Z,4.82
2023-01-04T14:20:55.292Z,4.83
2023-01-04T14:25:09.857Z,4.86
2023-01-04T14:29:22.884Z,4.89
2023-01-04T14:33:31.967Z,4.89
2023-01-04T14:37:35.912Z,4.85
2023-01-04T14:41:42.862Z,4.86
2023-01-04T14:45:45.871Z,4.87
2023-01-04T14:49:48.902Z,4.86
2023-01-04T14:53:52.165Z,4.88
2023-01-04T14:57:56.751Z,4.89
2023-01-04T15:01:59.874Z,4.93
2023-01-04T15:06:03.177Z,4.90
2023-01-04T15:10:16.809Z,4.93
2023-01-04T15:14:21.573Z,4.97
2023-01-04T15:18:24.692Z,4.95
2023-01-04T15:22:27.679Z,4.96
2023-01-04T15:26:31.079Z,4.93
2023-01-04T15:30:35.835Z,4.92
2023-01-04T15:34:44.857Z,4.94
2023-01-04T15:38:50.033Z,4.94
2023-01-04T15:43:01.875Z,4.94
2023-01-04T15:47:06.361Z,4.93
2023-01-04T15:51:10.422Z,4.94
2023-01-04T15:55:14.268Z,4.96
2023-01-04T15:59:17.259Z,4.98
2023-01-04T16:03:21.712Z,4.99
2023-01-04T16:07:24.845Z,5.04
2023-01-04T16:11:28.265Z,5.04
2023-01-04T16:15:31.308Z,5.02
2023-01-04T16:19:35.677Z,5.06
2023-01-04T16:23:39.011Z,5.06
2023-01-04T16:27:43.946Z,5.10
2023-01-04T16:31:47.018Z,5.13
2023-01-04T16:35:57.357Z,5.20
2023-01-04T16:40:09.125Z,5.26
2023-01-04T16:44:13.559Z,5.33
2023-01-04T16:48:18.624Z,5.37
2023-01-04T16:52:27.205Z,5.41
2023-01-04T16:56:30.681Z,5.38
2023-01-04T17:00:33.759Z,5.40
2023-01-04T17:04:37.110Z,5.41
2023-01-04T17:08:41.645Z,5.43
2023-01-04T17:12:47.594Z,5.46
2023-01-04T17:16:51.810Z,5.50
2023-01-04T17:21:11.093Z,5.49
2023-01-04T17:25:20.835Z,5.50
2023-01-04T17:29:23.887Z,5.52
2023-01-04T17:33:26.907Z,5.57
2023-01-04T17:37:30.147Z,5.63
2023-01-04T17:41:34.535Z,5.66
2023-01-04T17:45:37.725Z,5.66
2023-01-04T17:49:40.737Z,5.72
2023-01-04T17:53:45.215Z,5.77
2023-01-04T17:57:49.700Z,5.80
2023-01-04T18:01:52.890Z,5.79
2023-01-04T18:06:07.102Z,5.83
2023-01-04T18:10:27.108Z,5.81
2023-01-04T18:14:37.784Z,5.83
2023-01-04T18:18:41.270Z,5.90
2023-01-04T18:22:44.556Z,5.97
2023-01-04T18:27:20.007Z,5.98
2023-01-04T18:31:15.569Z,6.02
2023-01-04T18:35:19.063Z,6.08
2023-01-04T18:39:22.689Z,6.07
2023-01-04T18:43:25.927Z,6.06
2023-01-04T18:47:31.622Z,6.07
2023-01-04T18:51:34.795Z,6.08
2023-01-04T18:55:39.258Z,6.09
2023-01-04T18:59:42.854Z,6.11
2023-01-04T19:03:49.121Z,6.14
2023-01-04T19:07:52.229Z,6.14
2023-01-04T19:11:55.245Z,6.14
2023-01-04T19:15:58.958Z,6.18
2023-01-04T19:20:03.807Z,6.21
2023-01-04T19:24:07.488Z,6.21
2023-01-04T19:28:12.452Z,6.22
2023-01-04T19:32:19.168Z,6.24
2023-01-04T19:36:23.794Z,6.27
2023-01-04T19:40:27.753Z,6.25
2023-01-04T19:44:31.289Z,6.24
2023-01-04T19:48:34.335Z,6.26
2023-01-04T19:52:39.590Z,6.27
2023-01-04T19:56:42.714Z,6.30
2023-01-04T20:00:54.283Z,6.32
2023-01-04T20:04:58.024Z,6.33
2023-01-04T20:09:02.385Z,6.40
2023-01-04T20:13:05.441Z,6.61
2023-01-04T20:17:08.600Z,6.96
2023-01-04T20:21:15.252Z,7.36
2023-01-04T20:25:19.696Z,7.65
2023-01-04T20:29:22.745Z,7.90
2023-01-04T20:33:25.788Z,8.16
2023-01-04T20:37:28.785Z,8.30
2023-01-04T20:41:33.695Z,8.48
2023-01-04T20:45:41.572Z,8.58
2023-01-04T20:49:44.703Z,8.73
2023-01-04T20:53:47.899Z,8.81
2023-01-04T20:57:52.339Z,8.87
2023-01-04T21:01:55.480Z,8.93
2023-01-04T21:06:02.749Z,9.00
2023-01-04T21:10:06.404Z,8.99
2023-01-04T21:14:12.105Z,8.99
2023-01-04T21:18:15.484Z,9.00
2023-01-04T21:22:18.548Z,9.06
2023-01-04T21:26:22.858Z,9.14
2023-01-04T21:30:27.287Z,9.20
2023-01-04T21:34:31.623Z,9.26
2023-01-04T21:38:34.732Z,9.33
2023-01-04T21:42:37.789Z,9.38
2023-01-04T21:46:42.213Z,9.48
2023-01-04T21:50:45.404Z,9.58
2023-01-04T21:54:48.649Z,9.67
2023-01-04T21:58:51.935Z,9.75
2023-01-04T22:02:56.563Z,9.76
2023-01-04T22:07:00.048Z,9.80
2023-01-04T22:11:04.530Z,9.85
2023-01-04T22:15:29.360Z,9.88
2023-01-04T22:19:33.799Z,9.98
2023-01-04T22:23:36.896Z,10.03
2023-01-04T22:27:40.159Z,10.05
2023-01-04T22:31:43.733Z,10.08
2023-01-04T22:35:48.170Z,10.08
2023-01-04T22:39:51.167Z,10.17
2023-01-04T22:43:58.166Z,10.17
2023-01-04T22:48:01.680Z,10.18
2023-01-04T22:52:06.249Z,10.24
2023-01-04T22:56:19.474Z,10.22
2023-01-04T23:00:23.156Z,10.21
2023-01-04T23:04:28.433Z,10.23
2023-01-04T23:08:33.115Z,10.25
2023-01-04T23:12:36.185Z,10.25
2023-01-04T23:16:39.503Z,10.25
2023-01-04T23:20:42.556Z,10.26
2023-01-04T23:24:46.984Z,10.25
2023-01-04T23:28:51.207Z,10.22
2023-01-04T23:32:54.350Z,10.19
2023-01-04T23:36:57.558Z,10.18
2023-01-04T23:41:02.054Z,10.15
2023-01-04T23:45:05.761Z,10.12
2023-01-04T23:49:08.780Z,10.09
2023-01-04T23:53:11.921Z,10.06
2023-01-04T23:57:19.304Z,9.98
